createdAt,value
2022-10-05T00:01:20.666Z,12.10
2022-10-05T00:03:48.857Z,11.99
2022-10-05T00:06:17.004Z,11.97
2022-10-05T00:08:45.278Z,12.18
2022-10-05T00:11:15.879Z,12.19
2022-10-05T00:13:44.037Z,12.62
2022-10-05T00:16:18.441Z,12.29
2022-10-05T00:18:50.007Z,12.14
2022-10-05T00:21:21.993Z,11.82
2022-10-05T00:23:50.403Z,11.92
2022-10-05T00:26:23.167Z,11.80
2022-10-05T00:28:51.660Z,11.90
2022-10-05T00:31:24.173Z,12.05
2022-10-05T00:33:53.124Z,11.81
2022-10-05T00:36:21.396Z,12.02
2022-10-05T00:38:49.451Z,11.98
2022-10-05T00:41:24.161Z,11.60
2022-10-05T00:44:20.969Z,12.08
2022-10-05T00:46:58.160Z,12.08
2022-10-05T00:49:48.847Z,11.79
2022-10-05T00:52:25.921Z,11.76
2022-10-05T00:55:00.497Z,11.83
2022-10-05T00:57:42.199Z,11.87
2022-10-05T01:00:14.249Z,11.90
2022-10-05T01:02:54.870Z,11.78
2022-10-05T01:05:35.045Z,11.65
2022-10-05T01:08:12.372Z,11.68
2022-10-05T01:10:46.254Z,11.78
2022-10-05T01:13:27.398Z,11.66
2022-10-05T01:16:04.315Z,11.65
2022-10-05T01:18:42.619Z,11.58
2022-10-05T01:21:19.322Z,11.76
2022-10-05T01:24:14.409Z,11.84
2022-10-05T01:27:08.576Z,11.82
2022-10-05T01:29:44.655Z,11.84
2022-10-05T01:32:23.844Z,11.62
2022-10-05T01:34:58.676Z,12.24
2022-10-05T01:37:31.972Z,12.08
2022-10-05T01:40:07.066Z,12.07
2022-10-05T01:42:43.854Z,12.08
2022-10-05T01:45:23.275Z,12.02
2022-10-05T01:47:56.476Z,11.94
2022-10-05T01:50:33.377Z,11.82
2022-10-05T01:53:09.219Z,11.51
2022-10-05T01:55:43.258Z,11.54
2022-10-05T01:58:23.092Z,11.76
2022-10-05T02:01:02.733Z,11.70
2022-10-05T02:03:36.767Z,11.85
2022-10-05T02:06:11.568Z,11.62
2022-10-05T02:08:45.157Z,11.63
2022-10-05T02:11:15.770Z,11.61
2022-10-05T02:13:48.513Z,11.51
2022-10-05T02:16:24.528Z,11.53
2022-10-05T02:18:57.216Z,11.09
2022-10-05T02:21:26.786Z,11.01
2022-10-05T02:23:59.937Z,11.15
2022-10-05T02:26:31.770Z,11.09
2022-10-05T02:29:04.272Z,11.04
2022-10-05T02:31:41.884Z,11.12
2022-10-05T02:34:25.695Z,11.39
2022-10-05T02:37:16.012Z,11.72
2022-10-05T02:40:00.959Z,11.30
2022-10-05T02:42:35.988Z,11.27
2022-10-05T02:45:14.112Z,11.31
2022-10-05T02:47:51.776Z,11.35
2022-10-05T02:50:28.040Z,11.20
2022-10-05T02:53:07.607Z,11.30
2022-10-05T02:55:48.149Z,11.27
2022-10-05T02:58:20.779Z,11.40
2022-10-05T03:00:56.006Z,11.16
2022-10-05T03:03:34.967Z,10.88
2022-10-05T03:06:06.416Z,10.95
2022-10-05T03:08:41.394Z,11.13
2022-10-05T03:11:16.204Z,11.25
2022-10-05T03:13:50.717Z,11.69
2022-10-05T03:16:36.350Z,11.50
2022-10-05T03:19:18.842Z,11.50
2022-10-05T03:21:57.650Z,11.29
2022-10-05T03:25:02.565Z,10.91
2022-10-05T03:27:41.575Z,10.82
2022-10-05T03:30:16.026Z,10.85
2022-10-05T03:32:56.334Z,10.87
2022-10-05T03:35:34.325Z,10.81
2022-10-05T03:38:11.924Z,10.97
2022-10-05T03:40:46.400Z,11.15
2022-10-05T03:43:29.346Z,10.90
2022-10-05T03:46:06.852Z,11.17
2022-10-05T03:48:41.113Z,10.86
2022-10-05T03:51:15.983Z,10.87
2022-10-05T03:53:50.883Z,10.77
2022-10-05T03:56:26.385Z,11.24
2022-10-05T03:58:58.691Z,11.31
2022-10-05T04:01:37.148Z,10.99
2022-10-05T04:04:10.922Z,11.30
2022-10-05T04:06:45.680Z,11.10
2022-10-05T04:09:17.814Z,11.18
2022-10-05T04:11:52.046Z,11.19
2022-10-05T04:14:25.183Z,11.35
2022-10-05T04:16:59.434Z,11.14
2022-10-05T04:19:38.036Z,11.02
2022-10-05T04:22:13.337Z,10.95
2022-10-05T04:24:47.393Z,10.76
2022-10-05T04:27:18.931Z,10.78
2022-10-05T04:29:53.922Z,10.43
2022-10-05T04:32:38.390Z,10.61
2022-10-05T04:35:27.192Z,10.47
2022-10-05T04:38:04.252Z,10.53
2022-10-05T04:40:42.731Z,10.53
2022-10-05T04:43:16.434Z,10.92
2022-10-05T04:45:57.870Z,10.66
2022-10-05T04:48:40.498Z,10.86
2022-10-05T04:51:22.635Z,10.72
2022-10-05T04:53:58.163Z,10.49
2022-10-05T04:56:35.630Z,10.45
2022-10-05T04:59:23.335Z,10.56
2022-10-05T05:02:06.908Z,10.63
2022-10-05T05:04:52.083Z,10.54
2022-10-05T05:07:36.516Z,10.61
2022-10-05T05:10:45.458Z,10.94
2022-10-05T05:13:29.377Z,10.69
2022-10-05T05:16:06.480Z,10.93
2022-10-05T05:19:07.397Z,11.03
2022-10-05T05:21:43.569Z,10.88
2022-10-05T05:24:20.501Z,10.88
2022-10-05T05:27:19.585Z,10.82
2022-10-05T05:29:58.485Z,11.23
2022-10-05T05:32:37.408Z,11.03
2022-10-05T05:35:25.110Z,11.07
2022-10-05T05:38:00.703Z,11.26
2022-10-05T05:40:34.816Z,11.47
2022-10-05T05:43:18.094Z,11.20
2022-10-05T05:45:57.936Z,11.78
2022-10-05T05:48:32.885Z,11.74
2022-10-05T05:51:08.469Z,11.66
2022-10-05T05:53:43.301Z,11.87
2022-10-05T05:56:14.897Z,11.87
2022-10-05T05:58:54.045Z,12.02
2022-10-05T06:01:33.185Z,12.38
2022-10-05T06:04:10.391Z,12.47
2022-10-05T06:06:43.860Z,12.63
2022-10-05T06:09:22.400Z,12.53
2022-10-05T06:12:04.010Z,12.02
2022-10-05T06:14:40.880Z,11.97
2022-10-05T06:17:16.318Z,12.28
2022-10-05T06:19:46.824Z,12.50
2022-10-05T06:22:19.265Z,12.40
2022-10-05T06:25:01.560Z,12.02
2022-10-05T06:27:37.762Z,12.22
2022-10-05T06:30:14.295Z,12.48
2022-10-05T06:33:06.188Z,12.68
2022-10-05T06:35:49.730Z,12.43
2022-10-05T06:38:36.501Z,12.38
2022-10-05T06:41:16.837Z,12.59
2022-10-05T06:43:57.934Z,12.85
2022-10-05T06:46:57.553Z,12.13
2022-10-05T06:50:10.444Z,12.52
2022-10-05T06:53:00.748Z,11.73
2022-10-05T06:55:39.480Z,12.21
2022-10-05T06:58:19.486Z,12.42
2022-10-05T07:00:53.797Z,12.79
2022-10-05T07:03:33.034Z,14.91
2022-10-05T07:06:12.187Z,14.70
2022-10-05T07:08:54.313Z,14.38
2022-10-05T07:11:40.255Z,15.41
2022-10-05T07:14:18.817Z,17.83
2022-10-05T07:17:01.716Z,18.65
2022-10-05T07:19:42.310Z,19.90
2022-10-05T07:22:30.418Z,21.00
2022-10-05T07:25:10.628Z,20.97
2022-10-05T07:27:49.490Z,21.31
2022-10-05T07:30:20.655Z,19.53
2022-10-05T07:32:59.794Z,18.15
2022-10-05T07:36:02.284Z,19.28
2022-10-05T07:38:34.559Z,18.68
2022-10-05T07:41:07.500Z,19.05
2022-10-05T07:46:51.398Z,20.90
2022-10-05T07:49:31.663Z,20.79
2022-10-05T07:52:04.335Z,20.68
2022-10-05T07:54:45.647Z,22.03
2022-10-05T07:57:25.418Z,22.23
2022-10-05T08:00:01.682Z,22.06
2022-10-05T08:02:48.102Z,22.18
2022-10-05T08:05:24.122Z,23.32
2022-10-05T08:08:02.267Z,21.88
2022-10-05T08:10:37.199Z,20.59
2022-10-05T08:13:15.024Z,19.23
2022-10-05T08:15:47.505Z,20.31
2022-10-05T08:18:21.142Z,19.74
2022-10-05T08:20:53.478Z,19.63
2022-10-05T08:23:26.566Z,20.85
2022-10-05T08:26:13.118Z,19.92
2022-10-05T08:28:47.198Z,19.94
2022-10-05T08:31:22.606Z,19.35
2022-10-05T08:33:59.907Z,19.48
2022-10-05T08:36:53.003Z,18.02
2022-10-05T08:39:28.145Z,18.61
2022-10-05T08:42:22.997Z,18.52
2022-10-05T08:45:11.944Z,17.93
2022-10-05T08:48:06.059Z,17.94
2022-10-05T08:51:09.071Z,18.54
2022-10-05T08:54:00.154Z,18.62
2022-10-05T08:56:42.670Z,18.30
2022-10-05T08:59:36.876Z,18.11
2022-10-05T09:02:21.225Z,17.91
2022-10-05T09:05:12.264Z,17.50
2022-10-05T09:08:09.212Z,17.54
2022-10-05T09:11:02.519Z,17.36
2022-10-05T09:13:53.653Z,17.26
2022-10-05T09:16:51.183Z,17.48
2022-10-05T09:19:55.012Z,17.08
2022-10-05T09:22:36.662Z,17.61
2022-10-05T09:25:22.705Z,16.56
2022-10-05T09:27:57.126Z,16.93
2022-10-05T09:31:05.027Z,16.90
2022-10-05T09:33:58.110Z,16.97
2022-10-05T09:37:07.942Z,17.32
2022-10-05T09:40:00.450Z,16.77
2022-10-05T09:42:53.819Z,16.08
2022-10-05T09:45:50.657Z,16.72
2022-10-05T09:48:46.335Z,17.74
2022-10-05T09:52:00.378Z,17.93
2022-10-05T09:55:09.156Z,17.79
2022-10-05T09:57:57.415Z,17.95
2022-10-05T10:00:38.449Z,19.79
2022-10-05T10:03:45.161Z,20.64
2022-10-05T10:06:38.130Z,21.93
2022-10-05T10:09:21.990Z,19.97
2022-10-05T10:12:10.078Z,20.53
2022-10-05T10:15:14.193Z,19.74
2022-10-05T10:18:01.788Z,19.42
2022-10-05T10:20:46.064Z,19.92
2022-10-05T10:24:15.281Z,21.18
2022-10-05T10:27:03.423Z,20.45
2022-10-05T10:30:10.375Z,20.72
2022-10-05T10:33:15.915Z,19.08
2022-10-05T10:35:52.046Z,19.00
2022-10-05T10:38:40.341Z,19.71
2022-10-05T10:41:45.139Z,18.96
2022-10-05T10:44:59.093Z,18.77
2022-10-05T10:47:47.943Z,18.25
2022-10-05T10:50:51.977Z,18.98
2022-10-05T10:53:44.760Z,19.52
2022-10-05T10:56:39.074Z,20.33
2022-10-05T10:59:33.232Z,19.26
2022-10-05T11:02:23.030Z,20.89
2022-10-05T11:05:05.399Z,19.69
2022-10-05T11:07:59.290Z,20.23
2022-10-05T11:10:59.971Z,21.11
2022-10-05T11:13:40.708Z,21.89
2022-10-05T11:16:28.909Z,21.91
2022-10-05T11:19:16.347Z,20.72
2022-10-05T11:22:00.748Z,20.54
2022-10-05T11:24:50.882Z,21.46
2022-10-05T11:27:47.248Z,20.89
2022-10-05T11:30:27.616Z,20.92
2022-10-05T11:33:32.304Z,21.31
2022-10-05T11:36:27.119Z,21.79
2022-10-05T11:39:21.117Z,21.53
2022-10-05T11:42:15.824Z,20.73
2022-10-05T11:45:23.481Z,20.18
2022-10-05T11:48:25.663Z,20.26
2022-10-05T11:51:18.544Z,19.21
2022-10-05T11:53:53.007Z,19.66
2022-10-05T11:56:28.068Z,20.57
2022-10-05T11:59:02.802Z,21.18
2022-10-05T12:01:39.373Z,20.84
2022-10-05T12:04:18.503Z,20.19
2022-10-05T12:07:08.599Z,20.17
2022-10-05T12:10:16.928Z,19.92
2022-10-05T12:13:02.716Z,20.34
2022-10-05T12:15:37.715Z,20.28
2022-10-05T12:18:13.732Z,20.01
2022-10-05T12:20:48.658Z,19.65
2022-10-05T12:23:23.678Z,19.61
2022-10-05T12:25:58.904Z,20.49
2022-10-05T12:28:34.416Z,19.62
2022-10-05T12:31:17.097Z,19.75
2022-10-05T12:33:55.645Z,20.34
2022-10-05T12:36:59.310Z,19.92
2022-10-05T12:39:33.641Z,20.80
2022-10-05T12:42:15.432Z,20.34
2022-10-05T12:45:06.175Z,20.54
2022-10-05T12:47:42.797Z,20.76
2022-10-05T12:50:21.546Z,20.71
2022-10-05T12:53:02.945Z,19.65
2022-10-05T12:55:42.209Z,19.42
2022-10-05T12:58:24.078Z,19.50
2022-10-05T13:00:58.545Z,19.47
2022-10-05T13:03:31.867Z,18.90
2022-10-05T13:06:11.204Z,19.17
2022-10-05T13:08:50.943Z,18.97
2022-10-05T13:11:28.341Z,19.19
2022-10-05T13:14:10.964Z,18.89
2022-10-05T13:16:46.066Z,18.92
2022-10-05T13:19:30.508Z,19.03
2022-10-05T13:22:25.542Z,18.55
2022-10-05T13:25:01.409Z,18.73
2022-10-05T13:27:36.843Z,18.53
2022-10-05T13:30:14.652Z,18.64
2022-10-05T13:32:48.061Z,18.65
2022-10-05T13:35:31.170Z,19.34
2022-10-05T13:38:08.820Z,19.31
2022-10-05T13:40:43.400Z,19.26
2022-10-05T13:43:23.440Z,18.94
2022-10-05T13:45:57.544Z,19.18
2022-10-05T13:48:46.408Z,19.28
2022-10-05T13:51:22.199Z,19.52
2022-10-05T13:53:59.011Z,19.06
2022-10-05T13:56:31.749Z,18.92
2022-10-05T13:59:16.042Z,18.97
2022-10-05T14:01:54.074Z,19.53
2022-10-05T14:04:26.156Z,19.36
2022-10-05T14:06:54.660Z,19.49
2022-10-05T14:09:31.586Z,19.18
2022-10-05T14:12:15.850Z,18.87
2022-10-05T14:14:48.966Z,19.11
2022-10-05T14:17:19.017Z,18.98
2022-10-05T14:19:51.220Z,19.11
2022-10-05T14:22:23.350Z,19.06
2022-10-05T14:24:56.061Z,18.76
2022-10-05T14:27:26.793Z,18.58
2022-10-05T14:30:02.314Z,19.22
2022-10-05T14:32:34.579Z,18.75
2022-10-05T14:35:15.162Z,18.97
2022-10-05T14:37:52.939Z,19.26
2022-10-05T14:40:41.678Z,19.63
2022-10-05T14:43:27.653Z,18.80
2022-10-05T14:45:59.012Z,18.69
2022-10-05T14:48:29.008Z,19.30
2022-10-05T14:50:59.553Z,19.37
2022-10-05T14:53:39.206Z,18.07
2022-10-05T14:56:23.474Z,18.52
2022-10-05T14:59:06.985Z,18.96
2022-10-05T15:01:40.054Z,19.16
2022-10-05T15:04:23.354Z,18.43
2022-10-05T15:07:04.197Z,17.83
2022-10-05T15:09:56.922Z,18.15
2022-10-05T15:12:32.411Z,17.65
2022-10-05T15:15:07.761Z,17.56
2022-10-05T15:17:44.567Z,17.63
2022-10-05T15:20:24.602Z,17.66
2022-10-05T15:23:00.456Z,16.99
2022-10-05T15:25:37.137Z,17.69
2022-10-05T15:28:16.487Z,17.41
2022-10-05T15:30:54.000Z,18.15
2022-10-05T15:33:32.555Z,18.26
2022-10-05T15:36:11.322Z,18.84
2022-10-05T15:38:50.081Z,19.02
2022-10-05T15:41:24.920Z,18.58
2022-10-05T15:44:09.304Z,18.35
2022-10-05T15:46:47.720Z,17.85
2022-10-05T15:49:28.658Z,17.66
2022-10-05T15:52:04.710Z,18.04
2022-10-05T15:55:01.779Z,17.54
2022-10-05T15:57:39.860Z,16.66
2022-10-05T16:00:12.912Z,16.88
2022-10-05T16:02:51.332Z,16.63
2022-10-05T16:05:45.782Z,16.98
2022-10-05T16:08:42.606Z,16.66
2022-10-05T16:11:20.545Z,16.78
2022-10-05T16:13:59.793Z,16.39
2022-10-05T16:16:39.361Z,16.87
2022-10-05T16:19:14.917Z,16.64
2022-10-05T16:21:51.618Z,16.43
2022-10-05T16:24:42.581Z,16.50
2022-10-05T16:27:20.673Z,16.43
2022-10-05T16:29:58.041Z,16.15
2022-10-05T16:32:32.043Z,16.20
2022-10-05T16:35:07.862Z,16.37
2022-10-05T16:37:45.352Z,16.39
2022-10-05T16:40:22.494Z,16.05
2022-10-05T16:43:02.397Z,16.38
2022-10-05T16:45:48.424Z,16.08
2022-10-05T16:48:23.539Z,16.37
2022-10-05T16:51:03.927Z,16.35
2022-10-05T16:53:39.208Z,16.30
2022-10-05T16:56:11.197Z,16.42
2022-10-05T16:58:57.768Z,16.38
2022-10-05T17:01:42.171Z,16.19
2022-10-05T17:04:23.703Z,16.43
2022-10-05T17:07:21.170Z,16.28
2022-10-05T17:10:15.748Z,15.96
2022-10-05T17:12:53.856Z,15.96
2022-10-05T17:15:34.333Z,16.17
2022-10-05T17:18:16.649Z,16.13
2022-10-05T17:20:50.091Z,16.23
2022-10-05T17:23:29.286Z,16.15
2022-10-05T17:26:06.293Z,15.98
2022-10-05T17:28:40.664Z,16.06
2022-10-05T17:31:53.888Z,16.11
2022-10-05T17:34:30.667Z,16.11
2022-10-05T17:37:15.705Z,15.98
2022-10-05T17:39:51.941Z,15.79
2022-10-05T17:42:57.913Z,15.89
2022-10-05T17:46:06.926Z,15.78
2022-10-05T17:49:06.846Z,16.09
2022-10-05T17:52:15.406Z,15.89
2022-10-05T17:55:27.725Z,16.00
2022-10-05T17:57:59.933Z,15.94
2022-10-05T18:00:42.003Z,15.71
2022-10-05T18:03:43.109Z,16.33
2022-10-05T18:06:37.700Z,16.12
2022-10-05T18:09:37.657Z,16.31
2022-10-05T18:12:37.568Z,16.21
2022-10-05T18:15:21.420Z,16.35
2022-10-05T18:17:53.067Z,16.09
2022-10-05T18:20:32.648Z,15.90
2022-10-05T18:23:35.686Z,15.92
2022-10-05T18:26:09.464Z,16.13
2022-10-05T18:28:51.997Z,16.45
2022-10-05T18:31:31.554Z,16.18
2022-10-05T18:34:21.403Z,16.43
2022-10-05T18:37:19.300Z,16.22
2022-10-05T18:40:05.087Z,16.31
2022-10-05T18:42:42.128Z,16.07
2022-10-05T18:45:24.806Z,16.34
2022-10-05T18:48:10.394Z,16.46
2022-10-05T18:50:45.116Z,16.23
2022-10-05T18:53:27.063Z,16.31
2022-10-05T18:56:02.324Z,16.39
2022-10-05T18:58:37.843Z,16.36
2022-10-05T19:01:24.530Z,16.09
2022-10-05T19:04:04.836Z,16.24
2022-10-05T19:06:43.140Z,16.35
2022-10-05T19:09:23.893Z,16.39
2022-10-05T19:12:01.129Z,16.47
2022-10-05T19:14:38.506Z,16.43
2022-10-05T19:17:24.080Z,16.08
2022-10-05T19:20:17.374Z,15.92
2022-10-05T19:23:02.188Z,16.08
2022-10-05T19:25:38.685Z,16.37
2022-10-05T19:28:20.588Z,16.23
2022-10-05T19:31:25.377Z,16.23
2022-10-05T19:34:07.805Z,16.20
2022-10-05T19:36:49.918Z,16.35
2022-10-05T19:39:28.290Z,16.23
2022-10-05T19:42:13.621Z,16.28
2022-10-05T19:44:55.989Z,15.93
2022-10-05T19:47:38.872Z,16.15
2022-10-05T19:50:22.712Z,16.08
2022-10-05T19:52:57.882Z,16.14
2022-10-05T19:55:32.724Z,16.14
2022-10-05T19:58:01.277Z,16.11
2022-10-05T20:00:31.667Z,16.40
2022-10-05T20:03:11.999Z,16.28
2022-10-05T20:05:40.519Z,16.04
2022-10-05T20:08:17.190Z,15.80
2022-10-05T20:10:46.035Z,15.77
2022-10-05T20:13:22.430Z,15.95
2022-10-05T20:16:26.992Z,15.73
2022-10-05T20:19:14.951Z,15.85
2022-10-05T20:21:48.788Z,15.41
2022-10-05T20:24:20.246Z,15.49
2022-10-05T20:27:05.009Z,15.60
2022-10-05T20:29:36.443Z,15.74
2022-10-05T20:32:08.180Z,15.75
2022-10-05T20:34:37.760Z,15.75
2022-10-05T20:37:06.074Z,15.44
2022-10-05T20:39:35.425Z,15.19
2022-10-05T20:42:03.801Z,15.31
2022-10-05T20:44:32.205Z,15.47
2022-10-05T20:47:01.438Z,15.41
2022-10-05T20:49:31.142Z,15.23
2022-10-05T20:51:59.911Z,15.07
2022-10-05T20:54:28.481Z,14.79
2022-10-05T20:56:58.148Z,15.15
2022-10-05T20:59:26.720Z,15.03
2022-10-05T21:01:54.817Z,15.15
2022-10-05T21:04:25.174Z,15.00
2022-10-05T21:06:54.238Z,14.62
2022-10-05T21:09:22.415Z,14.65
2022-10-05T21:11:52.911Z,14.67
2022-10-05T21:14:23.384Z,14.71
2022-10-05T21:16:52.452Z,14.52
2022-10-05T21:19:20.549Z,14.73
2022-10-05T21:21:48.650Z,14.62
2022-10-05T21:24:17.397Z,14.67
2022-10-05T21:26:46.073Z,14.60
2022-10-05T21:29:14.278Z,14.44
2022-10-05T21:31:44.309Z,14.49
2022-10-05T21:34:12.461Z,14.43
2022-10-05T21:36:40.638Z,14.67
2022-10-05T21:39:08.670Z,14.65
2022-10-05T21:41:36.710Z,14.84
2022-10-05T21:44:06.351Z,14.92
2022-10-05T21:46:36.987Z,15.11
2022-10-05T21:49:06.834Z,15.29
2022-10-05T21:51:36.523Z,15.15
2022-10-05T21:54:10.747Z,15.26
2022-10-05T21:56:41.673Z,15.33
2022-10-05T21:59:12.562Z,15.28
2022-10-05T22:01:40.648Z,15.36
2022-10-05T22:04:10.072Z,15.46
2022-10-05T22:06:38.237Z,15.15
2022-10-05T22:09:06.493Z,15.37
2022-10-05T22:11:34.510Z,15.36
2022-10-05T22:14:03.233Z,15.45
2022-10-05T22:16:33.968Z,15.46
2022-10-05T22:19:04.949Z,15.64
2022-10-05T22:21:37.938Z,15.35
2022-10-05T22:24:06.591Z,15.45
2022-10-05T22:26:36.039Z,15.36
2022-10-05T22:29:04.836Z,15.49
2022-10-05T22:34:25.265Z,15.52
2022-10-05T22:36:55.145Z,15.55
2022-10-05T22:39:23.161Z,15.34
2022-10-05T22:41:51.718Z,15.05
2022-10-05T22:44:19.702Z,15.14
2022-10-05T22:46:47.732Z,15.12
2022-10-05T22:49:15.853Z,15.11
2022-10-05T22:51:43.803Z,15.02
2022-10-05T22:54:13.420Z,14.93
2022-10-05T22:56:41.788Z,14.79
2022-10-05T22:59:09.833Z,14.72
2022-10-05T23:01:37.823Z,14.87
2022-10-05T23:04:07.921Z,14.96
2022-10-05T23:06:35.964Z,14.66
2022-10-05T23:09:03.956Z,14.52
2022-10-05T23:11:33.357Z,14.46
2022-10-05T23:14:01.738Z,14.33
2022-10-05T23:16:30.270Z,14.29
2022-10-05T23:18:59.157Z,14.39
2022-10-05T23:21:30.454Z,14.37
2022-10-05T23:23:58.519Z,14.19
2022-10-05T23:26:27.733Z,14.16
2022-10-05T23:28:57.107Z,14.18
2022-10-05T23:31:51.352Z,14.05
2022-10-05T23:34:20.093Z,14.01
2022-10-05T23:36:48.070Z,14.14
2022-10-05T23:39:16.311Z,14.25
2022-10-05T23:41:44.517Z,13.94
2022-10-05T23:44:13.895Z,13.90
2022-10-05T23:46:41.860Z,13.86
2022-10-05T23:49:09.938Z,13.82
2022-10-05T23:51:37.970Z,13.50
2022-10-05T23:54:06.041Z,13.43
2022-10-05T23:56:34.071Z,13.44
2022-10-05T23:59:02.282Z,13.17
